Time;durP1;ratioP1;P1;durP2;ratioP2;P2;SDS_P1;SDS_P2;PMS_P1;PMS_P2;Temp;Humidity;BMP_temperature;BMP_pressure;BME280_temperature;BME280_humidity;BME280_pressure;Samples;Min_cycle;Max_cycle;Signal;HPM_P1;HPM_P2
2022/06/02 00:00:48;;;;;;;1.40;1.30;;;23.50;38.60;;;;;;4984744;28;20937;-43
2022/06/02 00:03:40;;;;;;;1.47;1.37;;;23.50;38.70;;;;;;4988789;28;20499;-42
2022/06/02 00:06:26;;;;;;;1.90;1.70;;;23.60;38.00;;;;;;4988476;28;20511;-44
2022/06/02 00:09:03;;;;;;;2.17;1.67;;;23.60;37.80;;;;;;4989976;28;20883;-43
2022/06/02 00:11:39;;;;;;;1.47;1.20;;;23.60;37.50;;;;;;4984658;28;20974;-43
2022/06/02 00:14:10;;;;;;;2.37;1.60;;;23.50;37.40;;;;;;4987271;28;20488;-44
2022/06/02 00:16:56;;;;;;;2.73;2.03;;;23.40;37.40;;;;;;4987360;28;20854;-42
2022/06/02 00:19:36;;;;;;;3.30;1.60;;;23.40;38.40;;;;;;4984915;28;20596;-43
2022/06/02 00:22:15;;;;;;;1.83;1.60;;;23.40;38.10;;;;;;4987116;28;20477;-43
2022/06/02 00:25:00;;;;;;;2.70;1.70;;;23.40;38.10;;;;;;4988087;28;20477;-43
2022/06/02 00:27:40;;;;;;;2.30;1.50;;;23.40;38.10;;;;;;4987345;28;20442;-42
2022/06/02 00:30:24;;;;;;;5.83;2.00;;;23.40;38.20;;;;;;4984144;28;20453;-42
2022/06/02 00:33:30;;;;;;;2.10;1.63;;;23.30;38.40;;;;;;4986513;28;20449;-43
2022/06/02 00:36:11;;;;;;;2.10;1.70;;;23.40;38.40;;;;;;4984600;28;20488;-43
2022/06/02 00:38:39;;;;;;;2.20;1.40;;;23.40;38.20;;;;;;4987074;28;20445;-45
2022/06/02 00:41:13;;;;;;;2.67;1.60;;;23.40;37.90;;;;;;4987431;28;20437;-43
2022/06/02 00:43:52;;;;;;;1.90;1.63;;;23.30;37.80;;;;;;4988090;28;20848;-43
2022/06/02 00:46:41;;;;;;;7.00;1.70;;;23.30;37.90;;;;;;4988848;28;20703;-44
2022/06/02 00:49:14;;;;;;;1.30;1.17;;;23.30;37.90;;;;;;4985134;28;20461;-42
2022/06/02 00:51:51;;;;;;;1.50;1.40;;;23.20;37.90;;;;;;4980928;28;21017;-43
2022/06/02 00:57:39;;;;;;;1.60;1.50;;;23.20;38.00;;;;;;4983131;28;20584;-43
2022/06/02 01:00:05;;;;;;;1.47;1.37;;;23.20;37.90;;;;;;4985516;28;20449;-42
2022/06/02 01:02:53;;;;;;;2.97;1.53;;;23.20;38.10;;;;;;4983149;28;22344;-42
2022/06/02 01:05:42;;;;;;;1.70;1.50;;;23.30;38.10;;;;;;4990248;28;20205;-42
2022/06/02 01:08:23;;;;;;;1.50;1.40;;;23.30;38.20;;;;;;4988896;28;20500;-42
2022/06/02 01:11:04;;;;;;;3.53;1.40;;;23.30;38.20;;;;;;4986360;28;20453;-43
2022/06/02 01:13:49;;;;;;;1.77;1.57;;;23.30;38.20;;;;;;4994305;28;20464;-42
2022/06/02 01:16:23;;;;;;;1.50;1.40;;;23.30;38.20;;;;;;4984591;28;20469;-44
2022/06/02 01:19:27;;;;;;;1.73;1.50;;;23.30;38.20;;;;;;4996978;28;20519;-45
2022/06/02 01:22:11;;;;;;;1.30;1.20;;;23.30;38.00;;;;;;4979975;28;20488;-46
2022/06/02 01:24:55;;;;;;;2.23;1.40;;;23.40;38.00;;;;;;4993954;28;20444;-43
2022/06/02 01:27:59;;;;;;;1.53;1.10;;;23.40;38.10;;;;;;4989459;28;20857;-46
2022/06/02 01:30:44;;;;;;;3.40;1.80;;;23.30;38.10;;;;;;4990780;28;20460;-44
2022/06/02 01:33:28;;;;;;;1.70;1.60;;;23.40;38.20;;;;;;4988791;28;20481;-46
2022/06/02 01:36:03;;;;;;;1.50;1.40;;;23.30;38.10;;;;;;4984921;28;20473;-43
2022/06/02 01:38:32;;;;;;;2.90;1.57;;;23.30;38.20;;;;;;4987876;28;20476;-43
2022/06/02 01:41:30;;;;;;;1.47;1.30;;;23.20;38.10;;;;;;4991170;28;20453;-46
2022/06/02 01:44:14;;;;;;;1.43;1.33;;;23.30;38.40;;;;;;4982429;28;20864;-46
2022/06/02 01:47:03;;;;;;;2.83;1.63;;;23.30;38.30;;;;;;4986951;28;20449;-47
2022/06/02 01:49:32;;;;;;;1.90;1.27;;;23.20;38.10;;;;;;4990628;28;20542;-45
2022/06/02 01:52:41;;;;;;;2.17;1.43;;;23.20;38.30;;;;;;4988453;28;20571;-44
2022/06/02 01:55:31;;;;;;;2.00;1.60;;;23.20;38.50;;;;;;4991964;28;20477;-44
2022/06/02 01:58:46;;;;;;;1.60;1.50;;;23.10;38.60;;;;;;4992052;28;20859;-45
2022/06/02 02:01:45;;;;;;;1.90;1.70;;;23.10;38.80;;;;;;4985393;28;20828;-44
2022/06/02 02:04:29;;;;;;;1.60;1.23;;;23.10;38.90;;;;;;4985284;28;20536;-42
2022/06/02 02:07:14;;;;;;;3.50;1.40;;;23.00;39.00;;;;;;4990996;28;20480;-43
2022/06/02 02:09:57;;;;;;;1.33;1.23;;;23.00;38.90;;;;;;4991294;28;21162;-43
2022/06/02 02:12:50;;;;;;;1.40;1.30;;;23.10;38.90;;;;;;4995741;28;20485;-43
2022/06/02 02:15:42;;;;;;;1.60;1.50;;;23.00;39.00;;;;;;4988705;28;20460;-43
2022/06/02 02:18:20;;;;;;;2.93;1.50;;;23.00;39.00;;;;;;4991237;28;20480;-42
2022/06/02 02:21:11;;;;;;;1.10;1.10;;;23.00;39.20;;;;;;4996264;28;20441;-43
2022/06/02 02:23:51;;;;;;;2.63;1.47;;;23.00;39.20;;;;;;4982119;28;20556;-46
2022/06/02 02:27:10;;;;;;;1.77;1.67;;;23.00;39.00;;;;;;4985075;28;20452;-43
2022/06/02 02:29:54;;;;;;;2.20;1.53;;;23.00;39.30;;;;;;4988842;28;20481;-44
2022/06/02 02:32:49;;;;;;;1.67;1.57;;;23.00;39.10;;;;;;4990422;28;20448;-43
2022/06/02 02:35:27;;;;;;;3.30;1.53;;;23.00;39.10;;;;;;4986103;28;20535;-43
2022/06/02 02:38:08;;;;;;;3.47;1.40;;;23.00;39.00;;;;;;4986886;28;20497;-43
2022/06/02 02:40:44;;;;;;;2.73;1.83;;;23.00;39.00;;;;;;4992571;28;20462;-45
2022/06/02 02:43:15;;;;;;;2.07;1.70;;;23.00;39.00;;;;;;4990190;28;20454;-42
2022/06/02 02:46:05;;;;;;;1.60;1.50;;;22.90;38.90;;;;;;4989312;28;20453;-43
2022/06/02 02:48:57;;;;;;;1.50;1.40;;;23.00;38.50;;;;;;4990187;28;20937;-43
2022/06/02 02:51:58;;;;;;;1.77;1.40;;;22.90;38.40;;;;;;4989221;28;20454;-43
2022/06/02 02:54:24;;;;;;;1.80;1.70;;;22.80;38.20;;;;;;4988466;28;20509;-43
2022/06/02 02:57:14;;;;;;;2.70;1.60;;;22.80;38.50;;;;;;4987170;28;20538;-43
2022/06/02 02:59:52;;;;;;;1.60;1.47;;;22.80;38.60;;;;;;4990375;28;20985;-43
2022/06/02 03:02:40;;;;;;;2.73;1.63;;;22.80;38.50;;;;;;4970899;28;21131;-42
2022/06/02 03:05:25;;;;;;;1.80;1.70;;;22.70;38.50;;;;;;4990717;28;20449;-42
2022/06/02 03:07:51;;;;;;;6.20;2.00;;;22.80;38.70;;;;;;4988701;28;20824;-43
2022/06/02 03:10:23;;;;;;;1.90;1.80;;;22.70;38.60;;;;;;4989142;28;20434;-43
2022/06/02 03:13:14;;;;;;;2.03;1.20;;;22.70;38.60;;;;;;4987476;28;20198;-43
2022/06/02 03:15:48;;;;;;;2.27;1.60;;;22.70;38.40;;;;;;4973137;28;20508;-42
2022/06/02 03:18:35;;;;;;;1.90;1.80;;;22.70;38.00;;;;;;4989568;28;20454;-42
2022/06/02 03:21:09;;;;;;;2.50;1.60;;;22.60;37.90;;;;;;4986503;28;20445;-42
2022/06/02 03:23:54;;;;;;;1.93;1.80;;;22.40;38.20;;;;;;4989301;28;20503;-43
2022/06/02 03:26:31;;;;;;;2.87;1.50;;;22.20;38.50;;;;;;4988667;28;20449;-43
2022/06/02 03:29:27;;;;;;;5.37;2.03;;;22.00;38.80;;;;;;4985248;28;21051;-43
2022/06/02 03:32:21;;;;;;;2.23;1.50;;;21.90;39.30;;;;;;4987816;28;20454;-44
2022/06/02 03:34:55;;;;;;;2.90;1.80;;;21.70;39.50;;;;;;4990679;28;20450;-47
2022/06/02 03:37:45;;;;;;;1.77;1.67;;;21.60;40.00;;;;;;4982690;28;20576;-43
2022/06/02 03:40:29;;;;;;;2.53;1.60;;;21.40;40.30;;;;;;4980771;28;20445;-43
2022/06/02 03:43:08;;;;;;;1.87;1.77;;;21.30;40.60;;;;;;4989881;28;20453;-45
2022/06/02 03:46:07;;;;;;;2.03;1.33;;;21.20;40.80;;;;;;4976557;28;20457;-42
2022/06/02 03:48:32;;;;;;;1.50;1.40;;;21.10;41.00;;;;;;4983481;28;20477;-43
2022/06/02 03:51:29;;;;;;;4.90;1.50;;;21.00;41.30;;;;;;4988292;28;20434;-43
2022/06/02 03:54:00;;;;;;;1.87;1.47;;;21.00;41.70;;;;;;4989147;28;20701;-42
2022/06/02 03:56:34;;;;;;;1.73;1.63;;;20.90;42.10;;;;;;4983937;28;20482;-42
2022/06/02 03:59:12;;;;;;;2.27;1.90;;;20.80;42.20;;;;;;4985050;28;20454;-43
2022/06/02 04:01:41;;;;;;;2.20;1.60;;;20.80;42.40;;;;;;4987953;28;20888;-43
2022/06/02 04:04:27;;;;;;;2.60;1.87;;;20.70;42.50;;;;;;4986907;28;20523;-44
2022/06/02 04:07:30;;;;;;;2.30;2.10;;;20.70;42.60;;;;;;4973062;28;20439;-43
2022/06/02 04:10:16;;;;;;;2.90;2.10;;;20.70;42.70;;;;;;4983919;28;21097;-44
2022/06/02 04:16:07;;;;;;;1.80;1.70;;;20.60;42.70;;;;;;4988125;28;21023;-43
2022/06/02 04:18:44;;;;;;;2.63;1.57;;;20.50;42.70;;;;;;4984057;28;21487;-43
2022/06/02 04:21:30;;;;;;;9.57;2.60;;;20.50;42.80;;;;;;4984706;28;20445;-44
2022/06/02 04:24:05;;;;;;;3.27;2.30;;;20.50;43.80;;;;;;4989686;28;20473;-43
2022/06/02 04:26:47;;;;;;;2.23;1.50;;;20.40;43.40;;;;;;4987163;28;20481;-43
2022/06/02 04:29:48;;;;;;;1.90;1.80;;;20.40;44.00;;;;;;4988431;28;20854;-43
2022/06/02 04:32:35;;;;;;;4.10;2.00;;;20.30;44.40;;;;;;4987151;28;21931;-42
2022/06/02 04:35:37;;;;;;;2.60;2.40;;;20.30;44.70;;;;;;4986378;28;20456;-43
2022/06/02 04:38:38;;;;;;;2.73;2.20;;;20.40;44.90;;;;;;4982955;28;20495;-44
2022/06/02 04:41:32;;;;;;;4.10;2.40;;;20.50;44.70;;;;;;4982238;28;20445;-43
2022/06/02 04:44:17;;;;;;;3.50;2.10;;;20.40;44.70;;;;;;4982526;28;20462;-43
2022/06/02 04:47:09;;;;;;;3.10;2.80;;;20.40;44.50;;;;;;4980864;28;20500;-44
2022/06/02 04:49:58;;;;;;;3.90;2.07;;;20.40;44.60;;;;;;4981993;28;20512;-44
2022/06/02 04:52:48;;;;;;;2.60;2.00;;;20.50;44.80;;;;;;4982966;28;20446;-43
2022/06/02 04:55:20;;;;;;;2.53;1.90;;;20.50;44.60;;;;;;4983135;28;20532;-43
2022/06/02 04:57:45;;;;;;;3.03;1.97;;;20.60;44.40;;;;;;4993147;28;20482;-43
2022/06/02 05:00:20;;;;;;;8.60;3.57;;;20.60;44.20;;;;;;4986954;28;20788;-44
2022/06/02 05:03:02;;;;;;;3.40;2.50;;;20.60;44.20;;;;;;4983182;28;20666;-44
2022/06/02 05:05:42;;;;;;;3.10;2.63;;;20.70;44.30;;;;;;4984883;28;20465;-44
2022/06/02 05:08:33;;;;;;;3.53;2.70;;;20.70;44.50;;;;;;4989026;28;20489;-44
2022/06/02 05:11:38;;;;;;;3.70;2.43;;;20.70;44.80;;;;;;4988449;28;20446;-44
2022/06/02 05:14:34;;;;;;;3.30;2.80;;;20.70;44.80;;;;;;4987989;28;20529;-43
2022/06/02 05:17:40;;;;;;;16.27;2.53;;;20.80;44.70;;;;;;4965984;28;20681;-44
2022/06/02 05:20:21;;;;;;;7.07;2.10;;;20.90;47.70;;;;;;4986480;28;20464;-43
2022/06/02 05:23:06;;;;;;;2.80;2.40;;;21.10;46.30;;;;;;4988409;28;20457;-43
2022/06/02 05:25:52;;;;;;;2.70;2.03;;;21.30;45.10;;;;;;4986884;28;20933;-44
2022/06/02 05:28:26;;;;;;;3.10;2.07;;;21.60;44.10;;;;;;4987797;28;20449;-43
2022/06/02 05:31:17;;;;;;;3.50;1.83;;;21.80;43.50;;;;;;4989134;28;20613;-44
2022/06/02 05:34:07;;;;;;;6.83;2.87;;;22.00;43.10;;;;;;4987200;28;20508;-45
2022/06/02 05:36:49;;;;;;;6.33;2.10;;;22.20;42.70;;;;;;4981390;28;20474;-43
2022/06/02 05:39:40;;;;;;;3.27;2.10;;;22.30;42.40;;;;;;4988644;28;20454;-43
2022/06/02 05:42:30;;;;;;;2.37;1.70;;;22.40;41.90;;;;;;4986532;28;20856;-43
2022/06/02 05:45:05;;;;;;;2.90;1.80;;;22.60;41.40;;;;;;4980325;28;20492;-43
2022/06/02 05:47:49;;;;;;;2.30;1.83;;;22.60;40.50;;;;;;4976053;28;20456;-46
2022/06/02 05:50:32;;;;;;;1.80;1.70;;;22.60;40.50;;;;;;4987170;28;20468;-43
2022/06/02 05:53:01;;;;;;;3.20;2.10;;;22.70;40.40;;;;;;4992939;28;21022;-44
2022/06/02 05:55:49;;;;;;;5.10;2.40;;;22.70;40.30;;;;;;4990922;28;20496;-43
2022/06/02 05:58:30;;;;;;;2.43;1.87;;;22.80;40.20;;;;;;4991583;28;20484;-43
2022/06/02 06:01:13;;;;;;;2.27;2.07;;;22.90;40.10;;;;;;4991825;28;20508;-44
2022/06/02 06:04:23;;;;;;;2.20;2.00;;;22.90;39.90;;;;;;4992912;28;20453;-43
2022/06/02 06:06:56;;;;;;;2.70;2.13;;;22.80;39.50;;;;;;4983022;28;20926;-44
2022/06/02 06:09:39;;;;;;;1.90;1.77;;;22.70;39.30;;;;;;4987141;28;20453;-45
2022/06/02 06:12:20;;;;;;;2.23;2.03;;;22.70;39.00;;;;;;4984120;28;20519;-46
2022/06/02 06:14:55;;;;;;;3.60;2.10;;;22.80;38.90;;;;;;4992947;28;20568;-43
2022/06/02 06:17:47;;;;;;;4.40;3.10;;;22.80;39.20;;;;;;4989405;28;20492;-44
2022/06/02 06:20:37;;;;;;;2.27;2.10;;;22.90;38.90;;;;;;4991967;28;20449;-43
2022/06/02 06:23:15;;;;;;;2.60;2.00;;;22.80;38.40;;;;;;4989534;28;20446;-43
2022/06/02 06:25:46;;;;;;;2.20;2.00;;;22.70;38.80;;;;;;4988440;28;20450;-44
2022/06/02 06:28:16;;;;;;;2.63;1.87;;;22.90;38.60;;;;;;4991812;28;20497;-44
2022/06/02 06:31:03;;;;;;;2.33;1.70;;;22.90;38.20;;;;;;4988346;28;20465;-44
2022/06/02 06:34:08;;;;;;;2.87;2.10;;;22.70;38.50;;;;;;4985417;28;20775;-44
2022/06/02 06:36:59;;;;;;;3.93;2.07;;;22.80;38.70;;;;;;4985268;28;20516;-46
2022/06/02 06:39:39;;;;;;;2.13;1.97;;;23.10;38.00;;;;;;4990911;28;20829;-48
2022/06/02 06:42:30;;;;;;;3.37;1.93;;;23.30;37.80;;;;;;4986673;28;20823;-44
2022/06/02 06:45:23;;;;;;;3.50;2.13;;;23.60;37.30;;;;;;4986859;28;20446;-43
2022/06/02 06:47:56;;;;;;;3.77;1.80;;;23.70;36.90;;;;;;4986378;28;20469;-44
2022/06/02 06:50:43;;;;;;;3.93;1.63;;;23.80;37.00;;;;;;4991399;28;20813;-43
2022/06/02 06:53:34;;;;;;;2.10;1.50;;;23.90;36.30;;;;;;4983797;28;20603;-45
2022/06/02 06:56:09;;;;;;;3.07;2.47;;;24.00;36.40;;;;;;4985407;28;20504;-43
2022/06/02 06:59:03;;;;;;;1.67;1.30;;;24.10;36.00;;;;;;4985331;28;20424;-43
2022/06/02 07:01:56;;;;;;;4.50;2.33;;;24.30;35.80;;;;;;4988491;28;20463;-43
2022/06/02 07:05:01;;;;;;;3.53;1.90;;;24.20;36.40;;;;;;4983922;28;20447;-44
2022/06/02 07:07:27;;;;;;;2.33;2.00;;;24.30;36.60;;;;;;4984760;28;20464;-44
2022/06/02 07:10:17;;;;;;;3.00;1.70;;;24.30;35.80;;;;;;4988912;28;20538;-43
2022/06/02 07:12:55;;;;;;;2.90;2.03;;;24.30;36.10;;;;;;4987290;28;20329;-43
2022/06/02 07:15:48;;;;;;;2.20;1.70;;;24.40;36.20;;;;;;4988759;28;20449;-43
2022/06/02 07:18:22;;;;;;;4.30;1.90;;;24.50;36.20;;;;;;4988875;28;20458;-44
2022/06/02 07:21:17;;;;;;;2.20;1.70;;;24.70;35.80;;;;;;4989765;28;20833;-43
2022/06/02 07:24:07;;;;;;;2.70;2.10;;;24.80;35.20;;;;;;4983504;28;21051;-43
2022/06/02 07:26:57;;;;;;;3.17;2.20;;;24.80;35.50;;;;;;4987147;28;20449;-43
2022/06/02 07:29:50;;;;;;;3.50;1.73;;;24.70;35.90;;;;;;4981562;28;20450;-43
2022/06/02 07:32:41;;;;;;;3.17;1.83;;;24.80;35.60;;;;;;4986627;28;20480;-43
2022/06/02 07:35:08;;;;;;;4.53;1.87;;;24.80;35.40;;;;;;4980286;28;21151;-43
2022/06/02 07:37:52;;;;;;;1.73;1.63;;;24.80;35.60;;;;;;4986834;28;20549;-43
2022/06/02 07:40:21;;;;;;;3.13;1.80;;;25.00;35.80;;;;;;4974649;28;20434;-43
2022/06/02 07:43:15;;;;;;;2.00;1.90;;;25.00;35.80;;;;;;4989370;28;21082;-45
2022/06/02 07:46:10;;;;;;;2.30;1.77;;;25.20;36.00;;;;;;4991061;28;21015;-43
2022/06/02 07:49:15;;;;;;;2.30;1.73;;;25.30;36.00;;;;;;4991702;28;20449;-43
2022/06/02 07:51:47;;;;;;;3.00;1.90;;;25.50;35.20;;;;;;4988874;28;20836;-43
2022/06/02 07:54:16;;;;;;;2.87;2.10;;;25.40;34.70;;;;;;4983590;28;21049;-43
2022/06/02 07:56:56;;;;;;;2.90;1.70;;;25.60;34.60;;;;;;4991073;28;20481;-43
2022/06/02 07:59:41;;;;;;;4.40;1.60;;;25.60;35.20;;;;;;4990525;28;20530;-43
2022/06/02 08:02:19;;;;;;;2.53;2.13;;;25.70;34.70;;;;;;4989789;28;20477;-43
2022/06/02 08:05:30;;;;;;;2.70;1.60;;;25.90;33.30;;;;;;4990642;28;20464;-43
2022/06/02 08:08:02;;;;;;;2.33;2.03;;;26.00;32.70;;;;;;4981788;28;20508;-43
2022/06/02 08:10:38;;;;;;;1.77;1.67;;;26.10;33.30;;;;;;4989781;28;20802;-43
2022/06/02 08:13:22;;;;;;;1.97;1.33;;;26.30;33.30;;;;;;4984643;28;20445;-44
2022/06/02 08:16:03;;;;;;;2.33;1.60;;;26.40;32.70;;;;;;4985925;28;20446;-43
2022/06/02 08:18:41;;;;;;;1.73;1.63;;;26.60;32.30;;;;;;4988729;28;20976;-43
2022/06/02 08:21:17;;;;;;;2.53;2.07;;;26.70;33.20;;;;;;4990366;28;20449;-43
2022/06/02 08:23:53;;;;;;;1.93;1.37;;;26.90;32.70;;;;;;4991362;28;20525;-43
2022/06/02 08:26:49;;;;;;;1.70;1.60;;;27.00;31.90;;;;;;4989659;28;20449;-43
2022/06/02 08:29:42;;;;;;;3.60;1.80;;;27.10;32.00;;;;;;4990450;28;20469;-43
2022/06/02 08:32:30;;;;;;;4.80;1.90;;;27.20;32.30;;;;;;4990307;28;20449;-43
2022/06/02 08:35:04;;;;;;;2.27;1.70;;;27.40;31.00;;;;;;4990540;28;20441;-43
2022/06/02 08:37:35;;;;;;;2.40;1.60;;;27.40;31.50;;;;;;4987288;28;20596;-44
2022/06/02 08:40:33;;;;;;;3.20;1.77;;;27.40;32.00;;;;;;4989779;28;20456;-43
2022/06/02 08:43:41;;;;;;;2.10;1.80;;;27.50;31.90;;;;;;4991327;28;20460;-44
2022/06/02 08:46:51;;;;;;;1.93;1.63;;;27.60;32.00;;;;;;4989521;28;20449;-45
2022/06/02 08:49:54;;;;;;;1.60;1.50;;;27.70;32.20;;;;;;4981215;28;20835;-43
2022/06/02 08:52:47;;;;;;;2.50;1.80;;;27.70;31.30;;;;;;4982497;28;20476;-43
2022/06/02 08:55:25;;;;;;;2.10;1.80;;;27.90;31.10;;;;;;4984103;28;20563;-44
2022/06/02 08:57:56;;;;;;;6.27;2.03;;;28.00;30.70;;;;;;4984136;28;20485;-45
2022/06/02 09:00:57;;;;;;;3.37;1.90;;;28.10;30.80;;;;;;4985297;28;20457;-44
2022/06/02 09:03:55;;;;;;;1.93;1.40;;;28.20;30.60;;;;;;4946257;29;21026;-43
2022/06/02 09:06:33;;;;;;;2.00;1.40;;;28.10;30.60;;;;;;4961907;28;22191;-43
2022/06/02 09:09:29;;;;;;;3.17;1.30;;;28.30;29.90;;;;;;4983583;28;20454;-44
2022/06/02 09:12:21;;;;;;;2.50;1.73;;;28.10;30.00;;;;;;4987387;28;20964;-43
2022/06/02 09:15:12;;;;;;;2.60;1.40;;;28.30;29.90;;;;;;4990464;28;20540;-44
2022/06/02 09:17:55;;;;;;;1.57;1.50;;;28.40;31.00;;;;;;4975361;28;20486;-43
2022/06/02 09:20:21;;;;;;;1.90;1.80;;;28.60;31.60;;;;;;4987494;28;20523;-44
2022/06/02 09:23:21;;;;;;;1.70;1.60;;;28.80;30.40;;;;;;4975533;28;20935;-44
2022/06/02 09:26:18;;;;;;;1.50;1.40;;;28.90;30.20;;;;;;4987830;28;20814;-44
2022/06/02 09:29:01;;;;;;;2.00;1.50;;;29.20;29.20;;;;;;4993378;28;20544;-44
2022/06/02 09:32:07;;;;;;;2.13;1.33;;;29.40;29.40;;;;;;4990422;28;20445;-46
2022/06/02 09:34:53;;;;;;;2.10;1.37;;;29.50;28.80;;;;;;4985574;28;20445;-44
2022/06/02 09:37:45;;;;;;;7.20;1.67;;;29.60;28.30;;;;;;4982464;28;20489;-44
2022/06/02 09:40:48;;;;;;;3.40;1.60;;;29.70;29.00;;;;;;4982518;28;20740;-45
2022/06/02 09:43:17;;;;;;;2.43;1.90;;;29.90;28.30;;;;;;4991364;28;20449;-46
2022/06/02 09:45:57;;;;;;;1.60;1.50;;;30.00;28.00;;;;;;4987888;28;20470;-45
2022/06/02 09:48:34;;;;;;;1.50;1.40;;;30.10;29.00;;;;;;4990573;28;20988;-44
2022/06/02 09:51:25;;;;;;;1.77;1.30;;;30.20;28.80;;;;;;4989869;28;20510;-46
2022/06/02 09:54:13;;;;;;;1.60;1.43;;;30.30;27.90;;;;;;4986560;28;20496;-45
2022/06/02 09:57:55;;;;;;;1.43;1.33;;;30.30;27.50;;;;;;4990099;28;20485;-46
2022/06/02 10:00:03;;;;;;;2.57;1.53;;;30.30;27.80;;;;;;4992028;28;20508;-47
2022/06/02 10:02:46;;;;;;;2.60;1.80;;;30.30;28.90;;;;;;4983053;28;20452;-45
2022/06/02 10:05:43;;;;;;;2.60;1.57;;;30.50;28.60;;;;;;4982721;28;20492;-45
2022/06/02 10:08:45;;;;;;;4.30;1.70;;;30.60;28.00;;;;;;4982210;28;20457;-46
2022/06/02 10:11:30;;;;;;;1.60;1.50;;;30.70;27.30;;;;;;4990933;28;20445;-45
2022/06/02 10:14:25;;;;;;;2.40;1.70;;;30.80;27.10;;;;;;4991696;28;20458;-44
2022/06/02 10:17:12;;;;;;;1.87;1.70;;;30.90;26.90;;;;;;4990310;28;20493;-44
2022/06/02 10:20:10;;;;;;;3.70;1.60;;;31.00;27.30;;;;;;4989740;28;20556;-44
2022/06/02 10:23:06;;;;;;;1.87;1.53;;;31.10;27.00;;;;;;4989834;28;20512;-46
2022/06/02 10:26:04;;;;;;;2.03;1.60;;;31.30;26.80;;;;;;4988165;28;20825;-45
2022/06/02 10:29:00;;;;;;;4.00;1.57;;;31.50;27.20;;;;;;4987246;28;20450;-44
2022/06/02 10:31:38;;;;;;;3.53;1.90;;;31.60;26.80;;;;;;4986438;28;20469;-43
2022/06/02 10:34:29;;;;;;;1.93;1.43;;;31.80;26.50;;;;;;4978588;28;20464;-44
2022/06/02 10:37:00;;;;;;;2.53;1.50;;;31.80;26.50;;;;;;4985207;28;20500;-44
2022/06/02 10:39:44;;;;;;;1.60;1.50;;;31.30;26.40;;;;;;4985698;28;20489;-44
2022/06/02 10:42:30;;;;;;;1.90;1.70;;;31.00;26.80;;;;;;4986851;28;20804;-43
2022/06/02 10:45:17;;;;;;;1.33;1.23;;;31.30;26.70;;;;;;4990307;28;20492;-45
2022/06/02 10:47:52;;;;;;;1.90;1.80;;;31.60;27.30;;;;;;4988433;28;20938;-44
2022/06/02 10:50:47;;;;;;;1.90;1.73;;;31.80;28.00;;;;;;4993130;28;20445;-44
2022/06/02 10:53:43;;;;;;;2.13;2.00;;;32.10;27.20;;;;;;4986694;28;20807;-44
2022/06/02 10:56:46;;;;;;;2.77;1.63;;;32.30;26.60;;;;;;4983784;28;21054;-44
2022/06/02 10:59:46;;;;;;;2.40;2.00;;;32.50;26.50;;;;;;4982990;28;20519;-43
2022/06/02 11:02:20;;;;;;;1.70;1.57;;;32.40;26.00;;;;;;4987578;28;20567;-44
2022/06/02 11:05:23;;;;;;;3.27;1.90;;;31.80;25.90;;;;;;4989000;28;20449;-44
2022/06/02 11:08:27;;;;;;;2.70;1.90;;;31.10;26.10;;;;;;4989073;28;20495;-45
2022/06/02 11:11:20;;;;;;;2.63;1.50;;;31.10;26.80;;;;;;4975344;28;20445;-44
2022/06/02 11:14:04;;;;;;;1.97;1.70;;;31.50;26.30;;;;;;4989295;28;20884;-47
2022/06/02 11:16:53;;;;;;;2.37;1.47;;;32.00;26.00;;;;;;4984515;28;20838;-48
2022/06/02 11:19:19;;;;;;;1.97;1.30;;;32.20;25.80;;;;;;4990355;28;20466;-46
2022/06/02 11:22:23;;;;;;;3.37;1.40;;;32.30;26.10;;;;;;4981814;28;20454;-45
2022/06/02 11:25:08;;;;;;;2.47;1.80;;;32.60;26.70;;;;;;4985340;28;20206;-44
2022/06/02 11:28:02;;;;;;;2.33;1.67;;;32.90;26.40;;;;;;4978998;28;20451;-44
2022/06/02 11:30:53;;;;;;;1.90;1.80;;;33.10;26.30;;;;;;4986256;28;20540;-45
2022/06/02 11:33:34;;;;;;;1.70;1.60;;;33.20;25.70;;;;;;4991161;28;20441;-46
2022/06/02 11:36:12;;;;;;;2.73;1.83;;;33.30;25.80;;;;;;4986801;28;20457;-48
2022/06/02 11:39:05;;;;;;;1.40;1.30;;;33.40;25.50;;;;;;4987326;28;20453;-49
2022/06/02 11:41:57;;;;;;;1.63;1.53;;;33.30;25.00;;;;;;4987909;28;20481;-47
2022/06/02 11:44:40;;;;;;;2.90;1.67;;;33.30;24.80;;;;;;4988088;28;20450;-46
2022/06/02 11:47:36;;;;;;;2.77;1.80;;;33.50;25.00;;;;;;4989873;28;20445;-45
2022/06/02 11:50:33;;;;;;;2.63;1.67;;;33.70;24.70;;;;;;4990671;28;20443;-44
2022/06/02 11:53:07;;;;;;;2.87;1.60;;;33.80;24.70;;;;;;4986471;28;21444;-45
2022/06/02 11:55:47;;;;;;;2.23;2.03;;;33.70;24.70;;;;;;4985489;28;20575;-46
2022/06/02 11:58:37;;;;;;;2.23;1.90;;;33.90;24.90;;;;;;4987907;28;20489;-45
2022/06/02 12:01:13;;;;;;;1.60;1.50;;;34.00;24.40;;;;;;4982647;28;20476;-48
2022/06/02 12:04:09;;;;;;;1.80;1.70;;;34.10;25.00;;;;;;4988300;28;20809;-46
2022/06/02 12:07:11;;;;;;;4.87;1.77;;;34.00;24.20;;;;;;4978752;28;20469;-46
2022/06/02 12:10:03;;;;;;;5.20;1.60;;;34.00;24.00;;;;;;4985226;28;20453;-45
2022/06/02 12:12:59;;;;;;;2.03;1.57;;;34.00;24.40;;;;;;4982929;28;20977;-45
2022/06/02 12:15:34;;;;;;;1.47;1.37;;;34.10;24.50;;;;;;4976238;28;20541;-48
2022/06/02 12:18:21;;;;;;;1.73;1.40;;;34.20;24.80;;;;;;4987032;28;20519;-45
2022/06/02 12:20:56;;;;;;;2.40;1.60;;;34.20;25.10;;;;;;4989714;28;20476;-45
2022/06/02 12:23:27;;;;;;;1.93;1.67;;;34.20;25.50;;;;;;4988403;28;20449;-45
2022/06/02 12:26:26;;;;;;;3.00;1.73;;;34.00;25.80;;;;;;4985741;28;20570;-46
2022/06/02 12:29:18;;;;;;;1.97;1.77;;;34.00;25.60;;;;;;4988963;28;20573;-45
2022/06/02 12:32:22;;;;;;;1.70;1.60;;;34.00;25.10;;;;;;4987368;28;20454;-50
2022/06/02 12:35:07;;;;;;;1.60;1.50;;;34.20;25.70;;;;;;4989956;28;20449;-45
2022/06/02 12:37:38;;;;;;;2.03;1.93;;;34.30;25.10;;;;;;4986723;28;20489;-45
2022/06/02 12:40:39;;;;;;;2.50;1.40;;;34.40;25.40;;;;;;4988131;28;20448;-49
2022/06/02 12:43:41;;;;;;;1.60;1.50;;;34.40;25.10;;;;;;4984857;28;20837;-45
2022/06/02 12:46:18;;;;;;;1.70;1.60;;;34.40;25.40;;;;;;4987444;28;20449;-45
2022/06/02 12:49:07;;;;;;;3.07;1.57;;;34.30;25.70;;;;;;4987955;28;21029;-45
2022/06/02 12:52:00;;;;;;;2.10;1.50;;;34.20;25.70;;;;;;4985865;28;20487;-44
2022/06/02 12:54:55;;;;;;;1.80;1.70;;;34.30;25.90;;;;;;4977464;28;20497;-45
2022/06/02 12:57:29;;;;;;;1.93;1.80;;;34.20;25.70;;;;;;4983557;28;20500;-45
2022/06/02 13:00:13;;;;;;;2.30;1.70;;;34.20;25.70;;;;;;4992745;28;20512;-45
2022/06/02 13:02:57;;;;;;;1.73;1.57;;;34.10;26.20;;;;;;4991144;28;20507;-45
2022/06/02 13:05:41;;;;;;;2.83;1.93;;;34.00;25.00;;;;;;4982134;28;20556;-45
2022/06/02 13:08:21;;;;;;;2.30;1.90;;;34.10;25.80;;;;;;4984147;28;20940;-45
2022/06/02 13:11:18;;;;;;;5.53;2.40;;;34.00;25.70;;;;;;4983728;28;20448;-44
2022/06/02 13:14:14;;;;;;;5.07;1.67;;;34.00;25.90;;;;;;4987461;28;20956;-45
2022/06/02 13:16:43;;;;;;;1.93;1.70;;;34.10;25.40;;;;;;4984871;28;20493;-45
2022/06/02 13:19:30;;;;;;;2.13;1.80;;;33.80;25.20;;;;;;4969390;28;20453;-45
2022/06/02 13:22:22;;;;;;;2.37;1.83;;;33.50;25.80;;;;;;4986885;28;20572;-45
2022/06/02 13:25:20;;;;;;;2.00;1.40;;;33.40;26.80;;;;;;4972062;28;20460;-48
2022/06/02 13:28:21;;;;;;;2.40;2.20;;;33.20;26.70;;;;;;4953734;28;20552;-45
2022/06/02 13:31:17;;;;;;;1.87;1.77;;;33.10;27.00;;;;;;4984903;28;21206;-45
2022/06/02 13:34:05;;;;;;;2.10;1.87;;;33.30;26.40;;;;;;4986085;28;20456;-44
2022/06/02 13:37:06;;;;;;;2.70;1.97;;;33.20;26.40;;;;;;4979617;28;20584;-45
2022/06/02 13:39:37;;;;;;;2.10;1.80;;;33.20;27.40;;;;;;4980298;28;20992;-45
2022/06/02 13:42:18;;;;;;;1.80;1.70;;;33.20;27.10;;;;;;4988771;28;20497;-46
2022/06/02 13:45:08;;;;;;;2.40;1.50;;;33.20;27.10;;;;;;4987685;28;20964;-46
2022/06/02 13:47:53;;;;;;;3.33;1.83;;;33.00;27.80;;;;;;4986275;28;20937;-44
2022/06/02 13:50:50;;;;;;;2.03;1.60;;;33.10;27.00;;;;;;4989482;28;20524;-45
2022/06/02 13:53:27;;;;;;;1.87;1.73;;;33.00;27.10;;;;;;5003809;28;20951;-45
2022/06/02 13:59:27;;;;;;;3.17;2.27;;;33.10;26.70;;;;;;4982505;28;20825;-45
2022/06/02 14:02:11;;;;;;;2.10;1.80;;;33.10;26.80;;;;;;4980647;28;20489;-44
2022/06/02 14:04:42;;;;;;;2.63;1.90;;;33.10;27.20;;;;;;4989231;28;20468;-46
2022/06/02 14:07:16;;;;;;;14.07;2.90;;;33.20;27.40;;;;;;4990309;28;20438;-45
2022/06/02 14:10:01;;;;;;;3.50;1.97;;;33.20;27.10;;;;;;4989259;28;20997;-44
2022/06/02 14:13:15;;;;;;;2.47;1.80;;;33.00;27.60;;;;;;4989821;28;20484;-45
2022/06/02 14:15:59;;;;;;;3.10;1.63;;;33.00;27.40;;;;;;4991824;28;20461;-44
2022/06/02 14:18:32;;;;;;;1.93;1.83;;;33.00;27.60;;;;;;4985253;28;20489;-46
2022/06/02 14:20:57;;;;;;;2.00;1.80;;;33.00;27.60;;;;;;4990074;28;20776;-45
2022/06/02 14:23:24;;;;;;;2.23;2.03;;;33.00;27.20;;;;;;4991695;28;20445;-46
2022/06/02 14:26:16;;;;;;;1.70;1.60;;;33.00;27.60;;;;;;4990067;28;20199;-45
2022/06/02 14:28:44;;;;;;;2.17;1.97;;;32.80;27.30;;;;;;4977909;28;20449;-45
2022/06/02 14:31:38;;;;;;;1.70;1.60;;;32.90;27.00;;;;;;4983648;28;20450;-46
2022/06/02 14:34:29;;;;;;;1.90;1.80;;;33.10;25.90;;;;;;4981585;28;20454;-45